createdAt,value
2023-02-26T00:00:37.038Z,0.69
2023-02-26T00:01:37.056Z,0.68
2023-02-26T00:02:37.067Z,0.65
2023-02-26T00:03:37.141Z,0.66
2023-02-26T00:04:37.122Z,0.69
2023-02-26T00:05:37.142Z,0.67
2023-02-26T01:28:39.296Z,0.63
2023-02-26T01:29:39.306Z,0.64
2023-02-26T01:30:39.365Z,0.64
2023-02-26T01:31:39.533Z,0.66
2023-02-26T01:32:39.411Z,0.62
2023-02-26T01:33:39.336Z,0.63
2023-02-26T01:34:39.422Z,0.63
2023-02-26T01:35:39.367Z,0.63
2023-02-26T01:36:39.462Z,0.62
2023-02-26T01:37:39.385Z,0.62
2023-02-26T01:38:39.413Z,0.61
2023-02-26T01:39:39.422Z,0.65
2023-02-26T01:40:39.432Z,0.63
2023-02-26T01:41:39.465Z,0.63
2023-02-26T01:42:39.461Z,0.64
2023-02-26T01:43:39.493Z,0.62
2023-02-26T01:44:39.515Z,0.64
2023-02-26T01:45:39.563Z,0.63
2023-02-26T01:46:39.584Z,0.62
2023-02-26T01:47:39.619Z,0.62
2023-02-26T01:48:39.725Z,0.62
2023-02-26T01:49:39.691Z,0.63
2023-02-26T01:50:39.735Z,0.61
2023-02-26T01:51:39.751Z,0.62
2023-02-26T01:52:39.784Z,0.62
2023-02-26T01:53:39.816Z,0.64
2023-02-26T01:54:39.855Z,0.63
2023-02-26T01:55:39.871Z,0.64
2023-02-26T01:56:39.968Z,0.63
2023-02-26T01:57:39.950Z,0.62
2023-02-26T01:58:40.041Z,0.61
2023-02-26T01:59:40.041Z,0.64
2023-02-26T02:00:40.093Z,0.62
2023-02-26T02:01:40.096Z,0.65
2023-02-26T02:03:40.229Z,0.62
2023-02-26T02:04:40.202Z,0.61
2023-02-26T05:15:46.013Z,0.57
2023-02-26T05:16:45.979Z,0.58
2023-02-26T05:17:46.012Z,0.57
2023-02-26T05:18:46.057Z,0.56
2023-02-26T05:19:46.100Z,0.57
2023-02-26T05:20:46.142Z,0.57
2023-02-26T05:21:46.154Z,0.57
2023-02-26T05:22:46.193Z,0.56
2023-02-26T05:23:46.226Z,0.56
2023-02-26T05:24:46.249Z,0.57
2023-02-26T05:25:46.304Z,0.57
2023-02-26T05:26:46.320Z,0.56
2023-02-26T05:27:46.370Z,0.56
2023-02-26T05:28:46.406Z,0.56
2023-02-26T05:29:46.444Z,0.56
2023-02-26T05:30:46.495Z,0.57
2023-02-26T05:31:46.698Z,0.58
2023-02-26T06:02:47.604Z,0.56
2023-02-26T06:03:47.607Z,0.55
2023-02-26T06:04:47.647Z,0.57
2023-02-26T06:05:47.696Z,0.55
2023-02-26T06:07:47.734Z,0.56
2023-02-26T06:08:47.771Z,0.55
2023-02-26T06:09:47.822Z,0.54
2023-02-26T06:10:47.840Z,0.57
2023-02-26T06:11:47.876Z,0.56
2023-02-26T06:12:47.914Z,0.56
2023-02-26T06:13:47.948Z,0.55
2023-02-26T06:14:47.988Z,0.54
2023-02-26T06:15:48.024Z,0.56
2023-02-26T06:16:48.091Z,0.57
2023-02-26T06:17:48.089Z,0.56
2023-02-26T06:18:48.121Z,0.55
2023-02-26T06:19:48.158Z,0.55
2023-02-26T06:20:48.196Z,0.54
2023-02-26T06:21:48.247Z,0.55
2023-02-26T06:22:48.283Z,0.55
2023-02-26T06:23:48.306Z,0.55
2023-02-26T06:26:48.578Z,0.55
2023-02-26T06:27:48.621Z,0.56
2023-02-26T06:28:48.666Z,0.54
2023-02-26T08:02:51.748Z,0.52
2023-02-26T08:06:51.867Z,0.51
2023-02-26T08:07:51.901Z,0.52
2023-02-26T08:08:51.930Z,0.53
2023-02-26T08:09:51.959Z,0.53
2023-02-26T08:10:51.983Z,0.52
2023-02-26T08:11:52.009Z,0.52
2023-02-26T08:12:52.060Z,0.51
2023-02-26T08:13:52.080Z,0.51
2023-02-26T08:14:52.098Z,0.51
2023-02-26T08:15:52.200Z,0.52
2023-02-26T08:16:52.161Z,0.53
2023-02-26T08:17:52.191Z,0.51
2023-02-26T08:18:52.218Z,0.51
2023-02-26T08:19:52.274Z,0.53
2023-02-26T08:20:52.290Z,0.53
2023-02-26T08:21:52.325Z,0.51
2023-02-26T08:22:52.384Z,0.52
2023-02-26T08:23:52.390Z,0.52
2023-02-26T08:24:52.405Z,0.52
2023-02-26T08:25:52.429Z,0.53
2023-02-26T08:26:52.460Z,0.51
2023-02-26T08:27:52.500Z,0.53
2023-02-26T08:28:52.535Z,0.51
2023-02-26T08:29:52.603Z,0.50
2023-02-26T08:30:52.649Z,0.51
2023-02-26T08:31:52.727Z,0.51
2023-02-26T08:32:52.647Z,0.52
2023-02-26T08:33:52.677Z,0.52
2023-02-26T08:34:52.790Z,0.53
2023-02-26T08:35:52.740Z,0.52
2023-02-26T08:36:52.777Z,0.51
2023-02-26T09:23:54.074Z,0.52
2023-02-26T09:24:54.167Z,0.51
2023-02-26T09:25:54.129Z,0.50
2023-02-26T09:26:54.154Z,0.51
2023-02-26T09:27:54.190Z,0.53
2023-02-26T09:28:54.204Z,0.52
2023-02-26T09:29:54.241Z,0.51
2023-02-26T09:30:54.315Z,0.51
2023-02-26T09:31:54.725Z,0.52
2023-02-26T09:32:54.363Z,0.52
2023-02-26T09:33:54.341Z,0.52
2023-02-26T09:34:54.376Z,0.52
2023-02-26T09:35:54.407Z,0.52
2023-02-26T09:36:54.428Z,0.51
2023-02-26T09:37:54.473Z,0.51
2023-02-26T09:38:54.479Z,0.51
2023-02-26T09:39:55.040Z,0.52
2023-02-26T09:40:54.537Z,0.50
2023-02-26T09:41:55.114Z,0.51
2023-02-26T09:42:54.590Z,0.51
2023-02-26T09:43:54.624Z,0.51
2023-02-26T09:44:54.651Z,0.52
2023-02-26T09:45:54.723Z,0.50
2023-02-26T09:46:54.714Z,0.52
2023-02-26T09:47:54.749Z,0.52
2023-02-26T09:48:54.770Z,0.52
2023-02-26T09:49:54.806Z,0.52
2023-02-26T09:50:54.828Z,0.51
2023-02-26T09:51:54.845Z,0.52
2023-02-26T09:52:54.875Z,0.51
2023-02-26T09:53:54.914Z,0.53
2023-02-26T09:54:54.932Z,0.51
2023-02-26T10:31:56.145Z,0.50
2023-02-26T10:32:55.979Z,0.50
2023-02-26T10:33:55.989Z,0.50
2023-02-26T10:34:56.025Z,0.51
2023-02-26T10:35:57.848Z,0.50
2023-02-26T10:36:56.121Z,0.53
2023-02-26T10:37:56.073Z,0.50
2023-02-26T10:38:56.121Z,0.52
2023-02-26T10:39:56.113Z,0.53
2023-02-26T10:40:56.183Z,0.52
2023-02-26T10:41:57.745Z,0.52
2023-02-26T10:42:56.135Z,0.52
2023-02-26T10:43:56.204Z,0.52
2023-02-26T10:44:56.147Z,0.52
2023-02-26T10:45:56.182Z,0.52
2023-02-26T10:46:56.157Z,0.52
2023-02-26T10:47:56.173Z,0.51
2023-02-26T10:48:56.170Z,0.52
2023-02-26T10:49:56.181Z,0.52
2023-02-26T10:50:56.186Z,0.51
2023-02-26T10:51:56.195Z,0.52
2023-02-26T10:52:56.211Z,0.51
2023-02-26T10:53:56.274Z,0.52
2023-02-26T10:54:56.283Z,0.52
2023-02-26T10:55:56.247Z,0.51
2023-02-26T10:56:56.253Z,0.51
2023-02-26T10:57:56.281Z,0.51
2023-02-26T10:58:56.265Z,0.52
2023-02-26T10:59:56.289Z,0.51
2023-02-26T11:00:56.339Z,0.52
2023-02-26T11:01:56.303Z,0.52
2023-02-26T11:02:56.327Z,0.52
2023-02-26T11:03:56.322Z,0.51
2023-02-26T11:05:06.936Z,0.51
2023-02-26T11:06:56.356Z,0.51
2023-02-26T11:07:56.343Z,0.51
2023-02-26T11:08:56.365Z,0.51
2023-02-26T11:09:56.365Z,0.51
2023-02-26T11:10:56.374Z,0.53
2023-02-26T11:11:56.381Z,0.51
2023-02-26T11:12:56.393Z,0.52
2023-02-26T11:13:56.393Z,0.51
2023-02-26T11:14:56.384Z,0.52
2023-02-26T11:15:56.402Z,0.52
2023-02-26T11:16:56.396Z,0.51
2023-02-26T11:17:56.402Z,0.51
2023-02-26T11:18:56.407Z,0.52
2023-02-26T11:19:56.415Z,0.51
2023-02-26T11:20:56.420Z,0.51
2023-02-26T11:21:56.425Z,0.51
2023-02-26T11:22:56.437Z,0.51
2023-02-26T11:23:56.428Z,0.52
2023-02-26T11:24:56.441Z,0.51
2023-02-26T11:25:56.448Z,0.52
2023-02-26T11:26:56.446Z,0.51
2023-02-26T11:27:56.457Z,0.51
2023-02-26T11:28:56.517Z,0.51
2023-02-26T11:29:56.475Z,0.51
2023-02-26T11:30:56.723Z,0.51
2023-02-26T11:31:56.566Z,0.51
2023-02-26T11:32:56.483Z,0.51
2023-02-26T11:33:56.541Z,0.51
2023-02-26T11:34:56.495Z,0.51
2023-02-26T11:35:56.502Z,0.51
2023-02-26T11:36:56.510Z,0.51
2023-02-26T11:37:56.537Z,0.52
2023-02-26T11:38:56.538Z,0.51
2023-02-26T11:39:56.544Z,0.51
2023-02-26T11:40:56.566Z,0.52
2023-02-26T11:41:56.573Z,0.52
2023-02-26T11:42:56.593Z,0.51
2023-02-26T11:43:56.667Z,0.51
2023-02-26T11:44:56.613Z,0.51
2023-02-26T11:45:56.712Z,0.52
2023-02-26T11:46:56.657Z,0.52
2023-02-26T11:47:56.677Z,0.51
2023-02-26T11:48:56.704Z,0.51
2023-02-26T11:49:56.717Z,0.51
2023-02-26T11:50:56.760Z,0.51
2023-02-26T11:51:56.742Z,0.51
2023-02-26T11:52:56.778Z,0.51
2023-02-26T11:53:56.824Z,0.51
2023-02-26T11:54:56.816Z,0.52
2023-02-26T11:55:56.833Z,0.52
2023-02-26T11:56:56.859Z,0.50
2023-02-26T11:57:57.160Z,0.51
2023-02-26T11:58:56.889Z,0.51
2023-02-26T11:59:56.908Z,0.51
2023-02-26T12:00:56.925Z,0.51
2023-02-26T12:01:57.029Z,0.52
2023-02-26T12:02:57.017Z,0.51
2023-02-26T12:03:57.024Z,0.50
2023-02-26T12:04:57.001Z,0.51
2023-02-26T12:05:56.997Z,0.53
2023-02-26T12:06:57.673Z,0.52
2023-02-26T12:07:57.041Z,0.52
2023-02-26T12:08:57.051Z,0.51
2023-02-26T12:09:57.081Z,0.52
2023-02-26T12:10:57.067Z,0.51
2023-02-26T12:11:57.104Z,0.51
2023-02-26T12:12:57.132Z,0.51
2023-02-26T12:13:57.133Z,0.51
2023-02-26T12:14:57.136Z,0.51
2023-02-26T12:15:57.165Z,0.51
2023-02-26T12:16:57.158Z,0.52
2023-02-26T12:17:57.170Z,0.51
2023-02-26T12:18:57.187Z,0.52
2023-02-26T12:19:57.211Z,0.52
2023-02-26T13:28:58.800Z,0.51
2023-02-26T13:35:58.982Z,0.52
2023-02-26T13:36:59.001Z,0.52
2023-02-26T13:37:59.102Z,0.52
2023-02-26T13:38:59.053Z,0.51
2023-02-26T13:39:59.088Z,0.51
2023-02-26T13:41:59.136Z,0.51
2023-02-26T13:42:59.165Z,0.51
2023-02-26T13:43:59.194Z,0.51
2023-02-26T13:44:59.231Z,0.50
2023-02-26T13:45:59.312Z,0.51
2023-02-26T13:46:59.281Z,0.51
2023-02-26T13:47:59.321Z,0.51
2023-02-26T13:48:59.324Z,0.51
2023-02-26T13:49:59.361Z,0.53
2023-02-26T13:50:59.379Z,0.51
2023-02-26T13:51:59.404Z,0.51
2023-02-26T13:52:59.430Z,0.51
2023-02-26T13:53:59.447Z,0.51
2023-02-26T13:54:59.517Z,0.51
2023-02-26T13:55:59.493Z,0.52
2023-02-26T13:56:59.604Z,0.51
2023-02-26T13:57:59.588Z,0.51
2023-02-26T13:58:59.593Z,0.52
2023-02-26T13:59:59.604Z,0.51
2023-02-26T14:28:00.297Z,0.51
2023-02-26T14:29:00.356Z,0.51
2023-02-26T14:30:00.357Z,0.52
2023-02-26T14:31:00.480Z,0.51
2023-02-26T14:32:00.548Z,0.50
2023-02-26T14:33:00.445Z,0.53
2023-02-26T14:34:00.432Z,0.51
2023-02-26T14:35:00.430Z,0.51
2023-02-26T14:36:00.466Z,0.51
2023-02-26T14:37:00.487Z,0.53
2023-02-26T14:38:00.506Z,0.52
2023-02-26T14:39:00.535Z,0.51
2023-02-26T14:40:00.568Z,0.53
2023-02-26T14:41:00.589Z,0.52
2023-02-26T14:42:00.610Z,0.51
2023-02-26T15:20:01.188Z,0.51
2023-02-26T15:21:01.182Z,0.52
2023-02-26T15:22:01.197Z,0.51
2023-02-26T15:23:01.211Z,0.50
2023-02-26T15:24:01.225Z,0.50
2023-02-26T15:25:01.259Z,0.52
2023-02-26T15:26:01.265Z,0.53
2023-02-26T15:27:01.284Z,0.51
2023-02-26T15:28:01.316Z,0.52
2023-02-26T15:29:01.341Z,0.51
2023-02-26T15:30:01.524Z,0.52
2023-02-26T15:31:01.502Z,0.51
2023-02-26T15:32:01.504Z,0.52
2023-02-26T15:33:01.498Z,0.51
2023-02-26T15:34:01.480Z,0.51
2023-02-26T15:35:01.505Z,0.53
2023-02-26T15:36:01.531Z,0.52
2023-02-26T15:37:01.560Z,0.52
2023-02-26T15:38:01.595Z,0.52
2023-02-26T15:39:01.665Z,0.52
2023-02-26T15:40:01.713Z,0.52
2023-02-26T15:41:01.701Z,0.52
2023-02-26T15:42:01.737Z,0.51
2023-02-26T15:43:01.760Z,0.51
2023-02-26T15:44:01.789Z,0.53
2023-02-26T15:45:01.852Z,0.52
2023-02-26T15:46:03.515Z,0.53
2023-02-26T15:47:01.899Z,0.53
2023-02-26T15:48:01.936Z,0.51
2023-02-26T15:49:01.973Z,0.52
2023-02-26T15:50:02.006Z,0.53
2023-02-26T15:51:02.036Z,0.52
2023-02-26T15:52:02.074Z,0.52
2023-02-26T15:53:02.104Z,0.52
2023-02-26T15:54:02.533Z,0.51
2023-02-26T15:55:02.170Z,0.52
2023-02-26T15:56:02.221Z,0.51
2023-02-26T15:57:02.243Z,0.51
2023-02-26T15:58:02.295Z,0.53
2023-02-26T15:59:02.326Z,0.53
2023-02-26T16:00:02.347Z,0.51
2023-02-26T16:01:02.391Z,0.52
2023-02-26T16:02:02.531Z,0.52
2023-02-26T16:03:02.485Z,0.52
2023-02-26T16:04:02.511Z,0.53
2023-02-26T16:05:02.530Z,0.51
2023-02-26T16:06:02.577Z,0.51
2023-02-26T16:07:02.611Z,0.53
2023-02-26T16:08:02.646Z,0.52
2023-02-26T16:09:02.676Z,0.52
2023-02-26T16:10:02.823Z,0.52
2023-02-26T16:11:02.759Z,0.52
2023-02-26T16:12:02.805Z,0.52
2023-02-26T16:13:02.836Z,0.51
2023-02-26T16:14:02.876Z,0.52
2023-02-26T16:15:02.916Z,0.51
2023-02-26T16:16:03.057Z,0.51
2023-02-26T16:17:03.001Z,0.51
2023-02-26T16:18:03.051Z,0.53
2023-02-26T16:19:03.074Z,0.52
2023-02-26T16:20:03.137Z,0.52
2023-02-26T16:21:03.175Z,0.52
2023-02-26T16:22:03.221Z,0.51
2023-02-26T16:23:03.259Z,0.53
2023-02-26T16:24:03.299Z,0.53
2023-02-26T16:25:03.346Z,0.52
2023-02-26T16:26:03.382Z,0.53
2023-02-26T16:27:03.423Z,0.52
2023-02-26T16:28:03.473Z,0.51
2023-02-26T16:29:03.585Z,0.51
2023-02-26T16:30:03.561Z,0.51
2023-02-26T16:31:03.684Z,0.51
2023-02-26T16:32:03.810Z,0.52
2023-02-26T16:33:03.694Z,0.53
2023-02-26T16:34:03.732Z,0.52
2023-02-26T16:35:03.787Z,0.53
2023-02-26T16:36:03.826Z,0.53
2023-02-26T16:37:03.862Z,0.53
2023-02-26T16:38:03.910Z,0.53
2023-02-26T16:39:03.954Z,0.53
2023-02-26T16:40:04.008Z,0.51
2023-02-26T16:41:04.044Z,0.52
2023-02-26T16:42:04.100Z,0.52
2023-02-26T16:43:04.140Z,0.51
2023-02-26T16:44:04.182Z,0.52
2023-02-26T16:45:04.292Z,0.52
2023-02-26T16:46:04.272Z,0.51
2023-02-26T16:47:04.329Z,0.53
2023-02-26T16:48:04.444Z,0.51
2023-02-26T16:49:04.425Z,0.53
2023-02-26T16:50:04.476Z,0.52
2023-02-26T16:51:04.517Z,0.53
2023-02-26T16:52:04.575Z,0.52
2023-02-26T16:53:04.640Z,0.51
2023-02-26T16:54:04.685Z,0.52
2023-02-26T16:55:04.775Z,0.51
2023-02-26T16:56:04.792Z,0.53
2023-02-26T16:57:04.840Z,0.53
2023-02-26T16:58:07.084Z,0.52
2023-02-26T17:00:05.112Z,0.52
2023-02-26T17:01:05.215Z,0.51
2023-02-26T17:02:05.191Z,0.53
2023-02-26T17:04:05.318Z,0.51
2023-02-26T17:05:05.328Z,0.51
2023-02-26T17:06:05.374Z,0.51
2023-02-26T17:07:05.429Z,0.52
2023-02-26T17:08:05.472Z,0.52
2023-02-26T17:09:05.523Z,0.51
2023-02-26T17:10:05.579Z,0.52
2023-02-26T17:11:05.638Z,0.52
2023-02-26T17:12:05.680Z,0.51
2023-02-26T17:13:05.731Z,0.51
2023-02-26T17:14:05.784Z,0.50
2023-02-26T17:15:05.893Z,0.52
2023-02-26T17:16:05.906Z,0.52
2023-02-26T17:17:06.268Z,0.52
2023-02-26T17:18:06.016Z,0.51
2023-02-26T17:19:06.041Z,0.52
2023-02-26T17:20:06.105Z,0.52
2023-02-26T17:21:06.154Z,0.52
2023-02-26T17:22:06.206Z,0.52
2023-02-26T17:23:06.245Z,0.51
2023-02-26T17:24:06.303Z,0.52
2023-02-26T17:25:06.351Z,0.51
2023-02-26T17:26:06.410Z,0.53
2023-02-26T17:27:06.474Z,0.51
2023-02-26T17:28:06.524Z,0.52
2023-02-26T17:29:06.579Z,0.51
2023-02-26T17:30:06.628Z,0.51
2023-02-26T17:31:06.741Z,0.51
2023-02-26T17:32:06.868Z,0.52
2023-02-26T17:33:06.798Z,0.51
2023-02-26T17:34:06.856Z,0.53
2023-02-26T17:35:06.911Z,0.53
2023-02-26T17:36:06.971Z,0.51
2023-02-26T17:37:07.029Z,0.52
2023-02-26T17:38:07.084Z,0.52
2023-02-26T17:39:07.157Z,0.52
2023-02-26T17:40:07.196Z,0.53
2023-02-26T17:41:07.287Z,0.51
2023-02-26T17:42:07.299Z,0.51
2023-02-26T17:43:07.360Z,0.52
2023-02-26T17:44:07.414Z,0.52
2023-02-26T17:45:07.476Z,0.52
2023-02-26T17:46:07.594Z,0.53
2023-02-26T17:47:07.598Z,0.52
2023-02-26T17:48:08.252Z,0.52
2023-02-26T17:49:07.735Z,0.52
2023-02-26T17:50:07.778Z,0.53
2023-02-26T17:51:07.846Z,0.52
2023-02-26T17:52:07.928Z,0.52
2023-02-26T17:53:07.984Z,0.53
2023-02-26T17:54:08.118Z,0.53
2023-02-26T17:55:08.101Z,0.52
2023-02-26T17:56:08.151Z,0.52
2023-02-26T17:57:08.220Z,0.51
2023-02-26T17:58:08.285Z,0.52
2023-02-26T17:59:08.338Z,0.51
2023-02-26T18:00:08.391Z,0.52
2023-02-26T18:01:08.487Z,0.52
2023-02-26T18:02:10.088Z,0.52
2023-02-26T18:03:08.562Z,0.52
2023-02-26T18:04:08.678Z,0.53
2023-02-26T18:05:08.678Z,0.50
2023-02-26T18:06:08.737Z,0.52
2023-02-26T18:07:08.794Z,0.52
2023-02-26T18:08:08.852Z,0.51
2023-02-26T18:14:09.195Z,0.52
2023-02-26T20:02:16.322Z,0.52
2023-02-26T20:05:15.978Z,0.51
2023-02-26T20:06:16.032Z,0.52
2023-02-26T20:07:16.114Z,0.50
2023-02-26T20:08:16.188Z,0.51
2023-02-26T20:09:16.261Z,0.52
2023-02-26T20:10:16.340Z,0.53
2023-02-26T20:11:16.489Z,0.53
2023-02-26T20:12:16.478Z,0.51
2023-02-26T20:13:16.529Z,0.53
2023-02-26T20:14:16.614Z,0.51
2023-02-26T20:15:16.679Z,0.52
2023-02-26T20:16:16.861Z,0.53
2023-02-26T20:17:16.848Z,0.53
2023-02-26T20:18:16.907Z,0.52
2023-02-26T20:19:16.984Z,0.52
2023-02-26T20:20:17.060Z,0.52
2023-02-26T20:21:17.134Z,0.52
2023-02-26T20:22:17.220Z,0.52
2023-02-26T20:23:17.340Z,0.53
2023-02-26T20:24:17.350Z,0.53
2023-02-26T20:25:17.424Z,0.53
2023-02-26T20:26:17.490Z,0.51
2023-02-26T20:27:17.568Z,0.51
2023-02-26T20:28:17.628Z,0.53
2023-02-26T20:29:17.705Z,0.51
2023-02-26T20:30:18.418Z,0.52
2023-02-26T20:31:17.938Z,0.53
2023-02-26T22:08:26.363Z,0.52
2023-02-26T22:12:25.973Z,0.52
2023-02-26T22:13:26.030Z,0.52
2023-02-26T22:14:26.110Z,0.51
2023-02-26T22:17:26.347Z,0.51
2023-02-26T22:18:26.427Z,0.52
2023-02-26T22:19:26.506Z,0.52
2023-02-26T22:20:26.588Z,0.52
2023-02-26T22:21:27.065Z,0.51
2023-02-26T22:22:26.754Z,0.52
2023-02-26T22:23:26.827Z,0.52
2023-02-26T22:26:27.060Z,0.52
